Aeroporto :
LOGIN :

Iscrizione | Disclaimer

   EN    FR    IT 

 










Sommario :    VFR   VFR Marginale   IFR   IFR Intensivo   IFR Molto Intensivo
Visibilità : 
Base nubi : 
>= 8 km
>= 3000ft
5 / 8 km
1000 / 3000 ft
1500m / 5 km
500 / 1000 ft
800 / 1500m
200 / 500 ft
< 800m
< 200 ft
Simboli :   Temporali  Nebbia  Neve Forte  Precipitazioni Forti  Vento > 20 kt
SIGMETs :   Varie  Temporali  Ghiacco  Turbolenza  Onda orograficha  Ceneri Vulcaniche






- Altitudine del aeroporto : 458 ft


LFSI - St-Dizier

ULTIMO METAR :
  • 200430Z AUTO 29007KT 9999 FEW028 BKN036 03/02 Q1020

METARs OBSOLETI :
  • 200400Z AUTO 29007KT 9999 SCT026 03/02 Q1020
  • 200330Z AUTO 29006KT 9999 SCT022 BKN042 BKN064 04/02 Q1020
  • 200300Z AUTO 30003KT 9999 FEW025 BKN040 BKN047 04/02 Q1019
  • 200230Z AUTO 30005KT 9999 FEW030 BKN060 04/02 Q1019
  • 200200Z AUTO 29006KT 9999 BKN029 BKN062 04/02 Q1019
  • 200130Z AUTO 32006KT 9999 BKN026 BKN041 OVC056 04/02 Q1019
  • 200100Z AUTO 30005KT 9999 OVC028 04/02 Q1019
  • 200030Z AUTO 31004KT 9999 BKN027 04/02 Q1019
  • 200000Z AUTO 30006KT 9999 FEW028 04/02 Q1019

TAF TAF LFSI
Valido dal 19 a 09 ore il 20 a 09 ore UTC


190800Z 1909/2009 23015KT 9999 FEW030 BKN050
TEMPO 1913/1915 27015G25KT
TEMPO 1915/1918 29015G25KT 2000 SHRA BKN010TCU BKN015
BECMG 1918/1919 31010KT
BECMG 2000/2002 BKN010
TEMPO 2003/2007 2000 DZRA BKN007



MetMap, La meteo Aeronautica in un colpo d'occhio ! - Copyright ORBIFLY Dicembre 2007 - Disclaimer

ORBIFLY MET'MAP TEAM :

Programmazione e sviluppo : Alexandra Zaïnal
Concezione : Baudouin d'Aumeries
Supporto tecnico e logistico : Manuel Goepfert
Aiuto : Marc-Olivier Méhu
Aiuto per la traduzione : Arnaldo La Scala




FONTI E CREDITI :

   NOAA